Time;durP1;ratioP1;P1;durP2;ratioP2;P2;SDS_P1;SDS_P2;PMS_P1;PMS_P2;Temp;Humidity;BMP_temperature;BMP_pressure;BME280_temperature;BME280_humidity;BME280_pressure;Samples;Min_cycle;Max_cycle;Signal;HPM_P1;HPM_P2
2023/01/02 00:01:13;;;;;;;0.80;0.80;;;-1.70;99.90;;;;;;5113807;28;20215;-73
2023/01/02 00:03:39;;;;;;;0.70;0.70;;;-1.70;99.90;;;;;;5095346;28;21571;-74
2023/01/02 00:06:05;;;;;;;0.80;0.80;;;-1.70;99.90;;;;;;5112227;27;20247;-74
2023/01/02 00:08:31;;;;;;;0.70;0.70;;;-1.80;99.90;;;;;;5134157;27;20645;-73
2023/01/02 00:10:57;;;;;;;0.80;0.80;;;-1.70;99.90;;;;;;5128130;27;20203;-74
2023/01/02 00:13:23;;;;;;;0.65;0.65;;;-1.70;99.90;;;;;;5094960;28;20196;-74
2023/01/02 00:15:49;;;;;;;0.60;0.60;;;-1.70;99.90;;;;;;5113592;28;20274;-74
2023/01/02 00:18:14;;;;;;;0.63;0.63;;;-1.70;99.90;;;;;;5095483;28;20282;-76
2023/01/02 00:20:40;;;;;;;0.70;0.70;;;-1.70;99.90;;;;;;5113382;28;20214;-75
2023/01/02 00:23:06;;;;;;;1.42;1.33;;;-1.70;99.90;;;;;;5095367;28;20191;-78
2023/01/02 00:25:33;;;;;;;0.60;0.60;;;-1.70;99.90;;;;;;5095098;28;20187;-78
2023/01/02 00:28:00;;;;;;;0.70;0.70;;;-1.70;99.90;;;;;;5113447;28;20581;-75
2023/01/02 00:30:26;;;;;;;0.73;0.73;;;-1.70;99.90;;;;;;5113209;28;20204;-74
2023/01/02 00:33:19;;;;;;;0.70;0.70;;;-1.70;99.90;;;;;;5093186;28;20196;-74
2023/01/02 00:35:44;;;;;;;0.60;0.60;;;-1.70;99.90;;;;;;5068917;28;20273;-75
2023/01/02 00:38:10;;;;;;;0.82;0.82;;;-1.70;99.90;;;;;;5107999;27;20601;-74
2023/01/02 00:40:36;;;;;;;0.80;0.80;;;-1.70;99.90;;;;;;5115242;27;20216;-76
2023/01/02 00:43:02;;;;;;;0.77;0.77;;;-1.70;99.90;;;;;;5133878;27;20187;-73
2023/01/02 00:45:28;;;;;;;0.57;0.57;;;-1.60;99.90;;;;;;5115217;27;20190;-74
2023/01/02 00:47:54;;;;;;;0.60;0.60;;;-1.60;99.90;;;;;;5133850;27;20652;-74
2023/01/02 00:50:20;;;;;;;0.60;0.60;;;-1.60;99.90;;;;;;5133595;27;20586;-73
2023/01/02 00:52:45;;;;;;;0.65;0.65;;;-1.50;99.90;;;;;;5115253;28;20247;-73
2023/01/02 00:55:11;;;;;;;0.65;0.65;;;-1.60;99.90;;;;;;5133647;28;20202;-74
2023/01/02 01:01:17;;;;;;;0.70;0.70;;;-1.60;99.90;;;;;;5090551;28;20500;-75
2023/01/02 01:03:55;;;;;;;0.63;0.63;;;-1.60;99.90;;;;;;5090837;28;20602;-77
2023/01/02 01:06:29;;;;;;;0.60;0.60;;;-1.60;99.90;;;;;;5090503;28;20699;-75
2023/01/02 01:08:55;;;;;;;0.70;0.70;;;-1.60;99.90;;;;;;5070546;28;20196;-75
2023/01/02 01:11:21;;;;;;;0.70;0.70;;;-1.50;99.90;;;;;;5069992;28;20209;-74
2023/01/02 01:13:47;;;;;;;0.65;0.65;;;-1.50;99.90;;;;;;5070220;28;20541;-74
2023/01/02 01:16:17;;;;;;;0.60;0.60;;;-1.50;99.90;;;;;;5070443;28;20200;-74
2023/01/02 01:18:44;;;;;;;0.73;0.73;;;-1.50;99.90;;;;;;5053488;28;20261;-74
2023/01/02 01:21:20;;;;;;;0.50;0.50;;;-1.40;99.90;;;;;;5070262;28;20220;-74
2023/01/02 01:24:07;;;;;;;0.70;0.70;;;-1.40;99.90;;;;;;5073064;28;20215;-75
2023/01/02 01:26:33;;;;;;;0.65;0.65;;;-1.40;99.90;;;;;;5057625;28;20721;-75
2023/01/02 01:28:59;;;;;;;0.70;0.70;;;-1.40;99.90;;;;;;5093026;28;20291;-75
2023/01/02 01:31:24;;;;;;;1.90;0.93;;;-1.40;99.90;;;;;;5077445;28;20204;-75
2023/01/02 01:33:59;;;;;;;0.80;0.80;;;-1.40;99.90;;;;;;5098012;28;20196;-75
2023/01/02 01:36:25;;;;;;;0.70;0.70;;;-1.40;99.90;;;;;;5114612;28;20214;-73
2023/01/02 01:38:51;;;;;;;0.70;0.70;;;-1.40;99.90;;;;;;5101384;28;20667;-73
2023/01/02 01:41:21;;;;;;;0.70;0.70;;;-1.40;99.90;;;;;;5096278;28;20204;-74
2023/01/02 01:44:02;;;;;;;0.70;0.70;;;-1.40;99.90;;;;;;5096370;28;20199;-74
2023/01/02 01:46:37;;;;;;;0.70;0.70;;;-1.40;99.90;;;;;;5094519;28;20200;-75
2023/01/02 01:49:15;;;;;;;0.80;0.80;;;-1.40;99.90;;;;;;5096029;28;20187;-74
2023/01/02 01:51:55;;;;;;;0.93;0.93;;;-1.30;99.90;;;;;;5094527;28;20211;-75
2023/01/02 01:54:29;;;;;;;0.73;0.73;;;-1.30;99.90;;;;;;5095836;28;20230;-73
2023/01/02 01:57:02;;;;;;;0.77;0.77;;;-1.40;99.90;;;;;;5095907;28;20284;-74
2023/01/02 01:59:28;;;;;;;0.68;0.68;;;-1.30;99.90;;;;;;5095799;28;20208;-75
2023/01/02 02:04:33;;;;;;;0.60;0.60;;;-1.30;99.90;;;;;;5096140;28;20282;-70
2023/01/02 02:06:59;;;;;;;0.60;0.60;;;-1.30;99.90;;;;;;5094973;28;20191;-70
2023/01/02 02:10:03;;;;;;;0.70;0.70;;;-1.20;99.90;;;;;;5094789;28;20192;-71
2023/01/02 02:12:29;;;;;;;0.60;0.60;;;-1.20;99.90;;;;;;5095041;28;20192;-70
2023/01/02 02:14:55;;;;;;;0.90;0.77;;;-1.10;99.90;;;;;;5094727;28;20199;-71
2023/01/02 02:17:29;;;;;;;0.70;0.70;;;-1.10;99.90;;;;;;5095044;28;20572;-71
2023/01/02 02:20:06;;;;;;;0.57;0.57;;;-1.10;99.90;;;;;;5076547;28;20298;-70
2023/01/02 02:23:00;;;;;;;0.70;0.70;;;-1.10;99.90;;;;;;5094413;28;20195;-71
2023/01/02 02:25:54;;;;;;;0.60;0.60;;;-1.20;99.90;;;;;;5094356;28;20274;-71
2023/01/02 02:28:56;;;;;;;0.93;0.93;;;-1.10;99.90;;;;;;5093715;28;20269;-71
2023/01/02 02:32:06;;;;;;;0.90;0.90;;;-1.10;99.90;;;;;;5076013;28;20192;-70
2023/01/02 02:35:00;;;;;;;0.70;0.70;;;-1.20;99.90;;;;;;5030296;28;20289;-71
2023/01/02 02:37:44;;;;;;;0.60;0.60;;;-1.20;99.90;;;;;;5025114;28;20237;-71
2023/01/02 02:40:19;;;;;;;0.60;0.60;;;-1.20;99.90;;;;;;5015121;28;20301;-71
2023/01/02 02:43:13;;;;;;;0.70;0.70;;;-1.20;99.90;;;;;;5031549;28;20198;-71
2023/01/02 02:45:45;;;;;;;1.10;0.95;;;-1.20;99.90;;;;;;5031379;28;20230;-71
2023/01/02 02:49:05;;;;;;;0.70;0.70;;;-1.20;99.90;;;;;;5031666;28;20207;-71
2023/01/02 02:51:34;;;;;;;0.60;0.60;;;-1.10;99.90;;;;;;4970585;28;20577;-71
2023/01/02 02:54:16;;;;;;;0.60;0.60;;;-1.10;99.90;;;;;;5031424;28;20224;-72
2023/01/02 02:56:44;;;;;;;0.70;0.70;;;-1.10;99.90;;;;;;5031283;28;20230;-72
2023/01/02 02:59:10;;;;;;;0.70;0.70;;;-1.10;99.90;;;;;;5031405;28;20194;-72
2023/01/02 03:01:36;;;;;;;0.70;0.70;;;-1.10;99.90;;;;;;5029970;28;20715;-72
2023/01/02 03:04:07;;;;;;;0.65;0.65;;;-1.10;99.90;;;;;;5030756;28;20230;-71
2023/01/02 03:07:09;;;;;;;0.63;0.63;;;-1.10;99.90;;;;;;5031025;28;20209;-72
2023/01/02 03:09:46;;;;;;;0.73;0.73;;;-1.10;99.90;;;;;;5011175;28;20217;-71
2023/01/02 03:12:21;;;;;;;0.60;0.60;;;-1.10;99.90;;;;;;5065888;28;20299;-71
2023/01/02 03:15:07;;;;;;;0.80;0.80;;;-1.10;99.90;;;;;;5073757;28;20192;-71
2023/01/02 03:18:02;;;;;;;0.70;0.70;;;-1.10;99.90;;;;;;5074650;28;20259;-71
2023/01/02 03:20:35;;;;;;;0.80;0.80;;;-1.10;99.90;;;;;;5092614;28;20540;-71
2023/01/02 03:23:05;;;;;;;0.60;0.60;;;-1.10;99.90;;;;;;5093385;28;20196;-71
2023/01/02 03:25:33;;;;;;;0.68;0.68;;;-1.10;99.90;;;;;;5093197;28;20185;-71
2023/01/02 03:28:00;;;;;;;0.70;0.70;;;-1.10;99.90;;;;;;5093387;28;20678;-71
2023/01/02 03:30:31;;;;;;;0.70;0.70;;;-1.20;99.90;;;;;;5093401;28;20199;-71
2023/01/02 03:33:16;;;;;;;0.70;0.70;;;-1.20;99.90;;;;;;5075071;28;20197;-72
2023/01/02 03:36:00;;;;;;;0.80;0.80;;;-1.20;99.90;;;;;;5074581;28;20272;-71
2023/01/02 03:38:34;;;;;;;0.65;0.65;;;-1.20;99.90;;;;;;5092965;28;20207;-71
2023/01/02 03:41:20;;;;;;;0.60;0.60;;;-1.30;99.90;;;;;;5074850;28;20203;-71
2023/01/02 03:43:49;;;;;;;0.80;0.80;;;-1.30;99.90;;;;;;5092931;28;20188;-73
2023/01/02 03:46:18;;;;;;;0.60;0.60;;;-1.30;99.90;;;;;;5092705;28;20192;-71
2023/01/02 03:49:00;;;;;;;0.80;0.80;;;-1.30;99.90;;;;;;5092851;28;20705;-71
2023/01/02 03:51:26;;;;;;;0.70;0.70;;;-1.40;99.90;;;;;;5074604;28;20648;-73
2023/01/02 03:53:53;;;;;;;0.63;0.63;;;-1.40;99.90;;;;;;5092978;28;20338;-72
2023/01/02 03:56:47;;;;;;;0.68;0.68;;;-1.40;99.90;;;;;;5092858;28;20329;-71
2023/01/02 03:59:40;;;;;;;0.60;0.60;;;-1.50;99.90;;;;;;5093092;28;20268;-71
2023/01/02 04:02:11;;;;;;;0.60;0.60;;;-1.50;99.90;;;;;;5092086;28;20428;-72
2023/01/02 04:04:55;;;;;;;0.50;0.50;;;-1.40;99.90;;;;;;5071986;28;20578;-72
2023/01/02 04:07:38;;;;;;;0.70;0.70;;;-1.50;99.90;;;;;;5072298;28;20566;-71
2023/01/02 04:10:06;;;;;;;0.60;0.60;;;-1.60;99.90;;;;;;5054244;28;20193;-71
2023/01/02 04:12:36;;;;;;;0.60;0.60;;;-1.60;99.90;;;;;;5072159;28;20197;-71
2023/01/02 04:15:05;;;;;;;0.50;0.50;;;-1.70;99.90;;;;;;5072550;28;20710;-70
2023/01/02 04:17:46;;;;;;;0.60;0.60;;;-1.70;99.90;;;;;;5071798;28;20192;-71
2023/01/02 04:20:26;;;;;;;0.55;0.55;;;-1.70;99.90;;;;;;5072104;28;20216;-71
2023/01/02 04:22:58;;;;;;;0.70;0.70;;;-1.70;99.90;;;;;;5072155;28;20561;-71
2023/01/02 04:25:29;;;;;;;0.50;0.50;;;-1.80;99.90;;;;;;5072014;28;20181;-70
2023/01/02 04:28:01;;;;;;;0.60;0.60;;;-1.80;99.90;;;;;;5072410;28;20216;-71
2023/01/02 04:30:30;;;;;;;0.60;0.60;;;-1.80;99.90;;;;;;5053963;28;20232;-71
2023/01/02 04:33:04;;;;;;;0.80;0.80;;;-1.70;99.90;;;;;;5072072;28;20201;-71
2023/01/02 04:35:30;;;;;;;0.57;0.57;;;-1.70;99.90;;;;;;5071633;28;20203;-72
2023/01/02 04:37:55;;;;;;;0.70;0.70;;;-1.70;99.90;;;;;;5071788;28;20201;-71
2023/01/02 04:40:28;;;;;;;0.63;0.63;;;-1.70;99.90;;;;;;5071830;28;20200;-72
2023/01/02 04:42:54;;;;;;;0.70;0.70;;;-1.70;99.90;;;;;;5053708;28;20199;-72
2023/01/02 04:45:20;;;;;;;1.38;1.27;;;-1.70;99.90;;;;;;5071233;28;20193;-72
2023/01/02 04:47:47;;;;;;;0.68;0.68;;;-1.70;99.90;;;;;;5071938;28;20557;-70
2023/01/02 04:50:13;;;;;;;0.63;0.63;;;-1.70;99.90;;;;;;5071653;28;20192;-72
2023/01/02 04:52:39;;;;;;;0.70;0.70;;;-1.70;99.90;;;;;;5071664;28;20200;-72
2023/01/02 04:55:09;;;;;;;0.60;0.60;;;-1.60;99.90;;;;;;5071790;28;20712;-73
2023/01/02 04:57:36;;;;;;;1.33;1.20;;;-1.70;99.90;;;;;;5070427;28;20193;-72
2023/01/02 05:00:02;;;;;;;0.70;0.70;;;-1.60;99.90;;;;;;5053480;28;20205;-71
2023/01/02 05:02:32;;;;;;;0.70;0.70;;;-1.70;99.90;;;;;;5074143;28;20720;-72
2023/01/02 05:04:58;;;;;;;0.63;0.63;;;-1.70;99.90;;;;;;5074276;28;20200;-71
2023/01/02 05:07:24;;;;;;;0.60;0.60;;;-1.80;99.90;;;;;;5074440;28;20188;-71
2023/01/02 05:09:49;;;;;;;0.60;0.60;;;-1.80;99.90;;;;;;5092037;28;20199;-71
2023/01/02 05:12:15;;;;;;;0.65;0.65;;;-1.80;99.90;;;;;;5091805;28;20191;-72
2023/01/02 05:14:41;;;;;;;0.60;0.60;;;-1.80;99.90;;;;;;5091462;28;20196;-70
2023/01/02 05:17:06;;;;;;;0.68;0.68;;;-1.80;99.90;;;;;;5073773;28;20192;-71
2023/01/02 05:19:32;;;;;;;0.63;0.63;;;-1.80;99.90;;;;;;5091236;28;20195;-71
2023/01/02 05:24:42;;;;;;;0.80;0.80;;;-1.80;99.90;;;;;;5091468;28;20282;-72
2023/01/02 05:27:08;;;;;;;0.70;0.70;;;-1.90;99.90;;;;;;5091642;28;20301;-70
2023/01/02 05:29:34;;;;;;;0.60;0.60;;;-1.90;99.90;;;;;;5090884;28;20199;-70
2023/01/02 05:32:00;;;;;;;0.70;0.70;;;-1.80;99.90;;;;;;5072272;28;20215;-71
2023/01/02 05:34:25;;;;;;;0.63;0.63;;;-1.80;99.90;;;;;;5091362;28;20663;-71
2023/01/02 05:36:51;;;;;;;0.63;0.63;;;-1.80;99.90;;;;;;5091646;28;20192;-71
2023/01/02 05:39:17;;;;;;;0.57;0.57;;;-1.80;99.90;;;;;;5073813;28;20193;-73
2023/01/02 05:41:42;;;;;;;0.68;0.68;;;-1.80;99.90;;;;;;5071230;28;20213;-72
2023/01/02 05:44:09;;;;;;;0.70;0.70;;;-1.80;99.90;;;;;;5071346;28;20663;-73
2023/01/02 05:46:37;;;;;;;0.50;0.50;;;-1.80;99.90;;;;;;5071177;28;20651;-72
2023/01/02 05:49:07;;;;;;;0.70;0.70;;;-1.80;99.90;;;;;;5072555;28;20219;-71
2023/01/02 05:51:33;;;;;;;0.60;0.60;;;-1.80;99.90;;;;;;5072933;28;20192;-71
2023/01/02 05:53:59;;;;;;;0.70;0.70;;;-1.80;99.90;;;;;;5091692;28;20199;-72
2023/01/02 05:56:26;;;;;;;0.80;0.80;;;-1.80;99.90;;;;;;5090952;28;20649;-72
2023/01/02 05:58:52;;;;;;;0.60;0.60;;;-1.80;99.90;;;;;;5073159;28;20207;-70
2023/01/02 06:01:21;;;;;;;0.50;0.50;;;-1.80;99.90;;;;;;5073081;28;20207;-71
2023/01/02 06:03:49;;;;;;;0.60;0.60;;;-1.80;99.90;;;;;;5091239;28;20228;-72
2023/01/02 06:06:16;;;;;;;0.60;0.60;;;-1.80;99.90;;;;;;5091343;28;20192;-72
2023/01/02 06:08:41;;;;;;;0.70;0.70;;;-1.80;99.90;;;;;;5091800;28;20192;-71
2023/01/02 06:11:07;;;;;;;0.70;0.70;;;-1.80;99.90;;;;;;5076175;28;20207;-72
2023/01/02 06:13:35;;;;;;;0.60;0.60;;;-1.80;99.90;;;;;;5094611;28;20192;-71
2023/01/02 06:16:02;;;;;;;0.60;0.60;;;-1.90;99.90;;;;;;5094864;28;20188;-71
2023/01/02 06:18:30;;;;;;;0.70;0.70;;;-1.90;99.90;;;;;;5094599;28;20673;-71
2023/01/02 06:21:05;;;;;;;0.77;0.77;;;-1.80;99.90;;;;;;5061868;28;20208;-70
2023/01/02 06:23:30;;;;;;;0.70;0.70;;;-1.90;99.90;;;;;;5073990;28;20589;-70
2023/01/02 06:26:02;;;;;;;0.68;0.68;;;-1.90;99.90;;;;;;5074496;28;20215;-71
2023/01/02 06:28:28;;;;;;;0.70;0.70;;;-1.80;99.90;;;;;;5054378;28;20656;-71
2023/01/02 06:31:02;;;;;;;0.50;0.50;;;-1.80;99.90;;;;;;5054256;28;20197;-71
2023/01/02 06:33:30;;;;;;;0.80;0.80;;;-1.80;99.90;;;;;;5052788;28;20236;-72
2023/01/02 06:36:01;;;;;;;0.57;0.57;;;-1.90;99.90;;;;;;5036383;28;20687;-71
2023/01/02 06:38:27;;;;;;;0.60;0.60;;;-1.90;99.90;;;;;;5064008;28;20219;-71
2023/01/02 06:40:57;;;;;;;0.60;0.60;;;-1.80;99.90;;;;;;5073991;28;20209;-70
2023/01/02 06:43:24;;;;;;;0.63;0.63;;;-1.80;99.90;;;;;;5074400;28;20529;-71
2023/01/02 06:45:50;;;;;;;0.60;0.60;;;-1.80;99.90;;;;;;5068343;28;20193;-70
2023/01/02 06:48:16;;;;;;;0.63;0.63;;;-1.80;99.90;;;;;;5056596;28;20250;-71
2023/01/02 06:50:43;;;;;;;0.60;0.60;;;-1.80;99.90;;;;;;5073900;28;20197;-71
2023/01/02 06:53:09;;;;;;;0.70;0.70;;;-1.80;99.90;;;;;;5073877;28;20215;-71
2023/01/02 06:55:35;;;;;;;0.68;0.68;;;-1.80;99.90;;;;;;5073599;28;20224;-71
2023/01/02 06:58:01;;;;;;;0.60;0.60;;;-1.80;99.90;;;;;;5073231;28;20193;-72
2023/01/02 07:00:26;;;;;;;0.55;0.55;;;-1.80;99.90;;;;;;5073648;28;20247;-70
2023/01/02 07:02:52;;;;;;;0.70;0.70;;;-1.80;99.90;;;;;;5072219;28;20259;-71
2023/01/02 07:05:18;;;;;;;0.70;0.70;;;-1.80;99.90;;;;;;5072053;28;20204;-72
2023/01/02 07:07:44;;;;;;;0.80;0.80;;;-1.80;99.90;;;;;;5072942;28;20720;-71
2023/01/02 07:10:09;;;;;;;0.70;0.70;;;-1.80;99.90;;;;;;5073847;28;20185;-70
2023/01/02 07:12:36;;;;;;;0.80;0.80;;;-1.80;99.90;;;;;;5055205;28;20266;-72
2023/01/02 07:15:06;;;;;;;0.70;0.70;;;-1.80;99.90;;;;;;5073293;28;20197;-70
2023/01/02 07:17:32;;;;;;;0.70;0.70;;;-1.80;99.90;;;;;;5073096;28;20411;-71
2023/01/02 07:19:58;;;;;;;0.95;0.95;;;-1.80;99.90;;;;;;5073146;28;20201;-71
2023/01/02 07:22:25;;;;;;;0.80;0.80;;;-1.80;99.90;;;;;;5054204;28;20272;-72
2023/01/02 07:24:51;;;;;;;0.90;0.90;;;-1.80;99.90;;;;;;5054780;28;20189;-71
2023/01/02 07:27:17;;;;;;;1.55;1.45;;;-1.90;99.90;;;;;;5073156;28;20724;-73
2023/01/02 07:29:42;;;;;;;0.70;0.70;;;-1.90;99.90;;;;;;5055642;28;20188;-71
2023/01/02 07:32:08;;;;;;;0.80;0.80;;;-1.90;99.90;;;;;;5073168;28;20238;-71
2023/01/02 07:34:34;;;;;;;0.90;0.90;;;-1.80;99.90;;;;;;5073050;28;20337;-72
2023/01/02 07:36:59;;;;;;;1.38;1.25;;;-1.90;99.90;;;;;;5072358;28;20220;-71
2023/01/02 07:39:26;;;;;;;0.70;0.70;;;-1.90;99.90;;;;;;5051334;28;20293;-71
2023/01/02 07:41:51;;;;;;;0.80;0.80;;;-1.90;99.90;;;;;;5056671;28;20236;-71
2023/01/02 07:44:17;;;;;;;3.15;2.85;;;-1.90;99.90;;;;;;5054677;28;20703;-71
2023/01/02 07:46:43;;;;;;;0.77;0.77;;;-1.90;99.90;;;;;;5072893;28;20326;-71
2023/01/02 07:49:11;;;;;;;0.90;0.90;;;-1.90;99.90;;;;;;5072513;28;20234;-72
2023/01/02 07:51:37;;;;;;;1.45;1.00;;;-1.90;99.90;;;;;;5071345;28;20204;-72
2023/01/02 07:54:03;;;;;;;1.10;1.10;;;-1.90;99.90;;;;;;5054848;28;20711;-71
2023/01/02 07:56:29;;;;;;;0.52;0.52;;;-1.80;99.90;;;;;;5072315;28;20192;-72
2023/01/02 07:58:55;;;;;;;0.70;0.70;;;-1.80;99.90;;;;;;5072424;28;20567;-72
2023/01/02 08:01:20;;;;;;;0.70;0.70;;;-1.80;99.90;;;;;;5072416;28;20201;-70
2023/01/02 08:03:46;;;;;;;1.00;1.00;;;-1.90;99.90;;;;;;5086106;28;20224;-70
2023/01/02 08:06:14;;;;;;;4.75;4.32;;;-1.80;99.90;;;;;;5093151;28;20678;-72
2023/01/02 08:08:40;;;;;;;8.50;4.57;;;-1.80;99.90;;;;;;5092511;28;20200;-70
2023/01/02 08:11:09;;;;;;;1.48;1.38;;;-1.80;99.90;;;;;;5092719;28;20215;-73
2023/01/02 08:13:35;;;;;;;1.05;1.05;;;-1.80;99.90;;;;;;5092678;28;20200;-72
2023/01/02 08:16:09;;;;;;;0.70;0.70;;;-1.90;99.90;;;;;;5092084;28;20215;-73
2023/01/02 08:18:35;;;;;;;0.60;0.60;;;-1.90;99.90;;;;;;5091499;28;20199;-72
2023/01/02 08:21:01;;;;;;;7.70;1.30;;;-1.90;99.90;;;;;;5074273;28;20733;-72
2023/01/02 08:23:27;;;;;;;0.70;0.70;;;-2.00;99.90;;;;;;5092152;28;20219;-71
2023/01/02 08:25:57;;;;;;;0.93;0.93;;;-2.00;99.90;;;;;;5092402;28;20254;-71
2023/01/02 08:28:23;;;;;;;0.70;0.70;;;-2.00;99.90;;;;;;5073895;28;20192;-71
2023/01/02 08:30:49;;;;;;;0.63;0.63;;;-2.00;99.90;;;;;;5092317;28;20206;-71
2023/01/02 08:33:14;;;;;;;0.75;0.75;;;-2.10;99.90;;;;;;5073497;28;20202;-71
2023/01/02 08:35:40;;;;;;;1.27;1.17;;;-2.10;99.90;;;;;;5091963;28;20192;-71
2023/01/02 08:38:06;;;;;;;0.60;0.60;;;-2.10;99.90;;;;;;5092277;28;20238;-71
2023/01/02 08:40:32;;;;;;;0.70;0.70;;;-2.10;99.90;;;;;;5091856;28;20200;-72
2023/01/02 08:42:57;;;;;;;0.73;0.70;;;-2.10;99.90;;;;;;5074177;28;20230;-72
2023/01/02 08:45:23;;;;;;;0.75;0.75;;;-2.10;99.90;;;;;;5091987;28;20630;-73
2023/01/02 08:47:49;;;;;;;0.70;0.70;;;-2.10;99.90;;;;;;5074034;28;20271;-72
2023/01/02 08:50:15;;;;;;;0.70;0.70;;;-2.10;99.90;;;;;;5073846;28;20200;-71
2023/01/02 08:52:40;;;;;;;0.90;0.90;;;-2.10;99.90;;;;;;5092171;28;20655;-72
2023/01/02 08:55:07;;;;;;;1.48;1.38;;;-2.10;99.90;;;;;;5092028;28;20655;-73
2023/01/02 08:57:32;;;;;;;0.60;0.60;;;-2.10;99.90;;;;;;5091224;28;20250;-72
2023/01/02 08:59:58;;;;;;;0.60;0.60;;;-2.10;99.90;;;;;;5091975;28;20650;-73
2023/01/02 09:02:24;;;;;;;0.70;0.70;;;-2.10;99.90;;;;;;5073460;28;20235;-73
2023/01/02 09:04:50;;;;;;;0.60;0.60;;;-2.10;99.90;;;;;;5073845;28;20230;-72
2023/01/02 09:07:16;;;;;;;1.00;1.00;;;-2.10;99.90;;;;;;5091949;28;20187;-71
2023/01/02 09:09:42;;;;;;;1.75;0.95;;;-2.00;99.90;;;;;;5091521;28;20219;-71
2023/01/02 09:12:08;;;;;;;0.60;0.60;;;-2.10;99.90;;;;;;5091918;28;20658;-72
2023/01/02 09:14:34;;;;;;;0.70;0.70;;;-2.10;99.90;;;;;;5091500;28;20267;-73
2023/01/02 09:16:59;;;;;;;0.70;0.70;;;-2.10;99.90;;;;;;5091641;28;20253;-72
2023/01/02 09:19:26;;;;;;;0.77;0.77;;;-2.10;99.90;;;;;;5073536;28;20227;-72
2023/01/02 09:21:52;;;;;;;0.70;0.70;;;-2.10;99.90;;;;;;5091625;28;20200;-71
2023/01/02 09:24:18;;;;;;;0.60;0.60;;;-2.10;99.90;;;;;;5091299;28;20192;-73
2023/01/02 09:26:44;;;;;;;0.60;0.60;;;-2.10;99.90;;;;;;5091502;28;20598;-71
2023/01/02 09:29:10;;;;;;;0.68;0.68;;;-2.00;99.90;;;;;;5091760;28;20179;-71
2023/01/02 09:31:37;;;;;;;0.70;0.70;;;-2.10;99.90;;;;;;5073202;28;20208;-73
2023/01/02 09:34:02;;;;;;;0.70;0.70;;;-2.00;99.90;;;;;;5091257;28;20283;-72
2023/01/02 09:36:28;;;;;;;0.68;0.68;;;-2.00;99.90;;;;;;5072974;28;20725;-71
2023/01/02 09:38:59;;;;;;;0.70;0.70;;;-2.00;99.90;;;;;;5091145;28;20200;-70
2023/01/02 09:41:32;;;;;;;0.60;0.60;;;-2.00;99.90;;;;;;5090818;28;20224;-71
2023/01/02 09:44:10;;;;;;;0.95;0.95;;;-2.00;99.90;;;;;;5074104;28;20203;-72
2023/01/02 09:46:55;;;;;;;0.70;0.70;;;-2.10;99.90;;;;;;5077017;28;20504;-73
2023/01/02 09:49:24;;;;;;;0.60;0.60;;;-2.10;99.90;;;;;;5077233;28;20680;-73
2023/01/02 09:51:50;;;;;;;0.50;0.50;;;-2.20;99.90;;;;;;5095282;28;20200;-73
2023/01/02 09:54:25;;;;;;;0.70;0.70;;;-2.20;99.90;;;;;;5077085;28;20283;-72
2023/01/02 09:57:14;;;;;;;0.65;0.65;;;-2.20;99.90;;;;;;5076925;28;20200;-71
2023/01/02 10:00:18;;;;;;;0.60;0.60;;;-2.20;99.90;;;;;;5070199;28;20725;-73
2023/01/02 10:03:11;;;;;;;0.70;0.70;;;-2.10;99.90;;;;;;5094751;28;20240;-71
2023/01/02 10:05:55;;;;;;;0.80;0.80;;;-2.10;99.90;;;;;;5094688;28;20203;-74
2023/01/02 10:08:24;;;;;;;0.70;0.70;;;-2.10;99.90;;;;;;5094696;28;20558;-73
2023/01/02 10:11:21;;;;;;;0.68;0.68;;;-2.10;99.90;;;;;;5077243;28;20257;-74
2023/01/02 10:13:57;;;;;;;0.70;0.70;;;-2.10;99.90;;;;;;5056230;28;20714;-74
2023/01/02 10:16:35;;;;;;;0.70;0.70;;;-2.10;99.90;;;;;;5074624;28;20721;-74
2023/01/02 10:19:11;;;;;;;0.70;0.70;;;-2.10;99.90;;;;;;5056871;28;20193;-72
2023/01/02 10:21:38;;;;;;;0.70;0.70;;;-2.10;99.90;;;;;;5056299;28;20299;-72
2023/01/02 10:24:18;;;;;;;0.85;0.85;;;-2.10;99.90;;;;;;5073076;28;20193;-73
2023/01/02 10:26:51;;;;;;;1.23;1.08;;;-2.10;99.90;;;;;;5056831;28;20651;-74
2023/01/02 10:29:31;;;;;;;0.60;0.60;;;-2.00;99.90;;;;;;5074273;28;20279;-73
2023/01/02 10:32:04;;;;;;;0.60;0.60;;;-2.00;99.90;;;;;;5089597;28;20199;-73
2023/01/02 10:35:07;;;;;;;0.80;0.80;;;-2.00;99.90;;;;;;5094127;28;20200;-71
2023/01/02 10:37:34;;;;;;;0.60;0.60;;;-2.00;99.90;;;;;;5076015;28;20578;-72
2023/01/02 10:40:00;;;;;;;0.65;0.65;;;-2.10;99.90;;;;;;5075965;28;20224;-73
2023/01/02 10:42:26;;;;;;;1.05;1.00;;;-2.10;99.90;;;;;;5092923;28;20701;-71
2023/01/02 10:44:52;;;;;;;0.70;0.70;;;-2.10;99.90;;;;;;5094574;28;20192;-72
2023/01/02 10:47:26;;;;;;;0.77;0.77;;;-2.10;99.90;;;;;;5094013;28;20244;-72
2023/01/02 10:49:52;;;;;;;0.80;0.80;;;-2.10;99.90;;;;;;5094347;28;20612;-72
2023/01/02 10:52:28;;;;;;;0.70;0.70;;;-2.10;99.90;;;;;;5094149;28;20203;-71
2023/01/02 10:54:56;;;;;;;0.70;0.70;;;-2.10;99.90;;;;;;5093682;28;20599;-72
2023/01/02 10:57:38;;;;;;;0.77;0.77;;;-2.10;99.90;;;;;;5093125;28;20655;-73
2023/01/02 11:00:05;;;;;;;0.60;0.60;;;-2.00;99.90;;;;;;5094136;28;20188;-73
2023/01/02 11:02:39;;;;;;;0.50;0.50;;;-2.00;99.90;;;;;;5093746;28;20784;-73
2023/01/02 11:05:16;;;;;;;0.60;0.60;;;-1.90;99.90;;;;;;5094090;28;20186;-73
2023/01/02 11:07:47;;;;;;;0.77;0.77;;;-1.90;99.90;;;;;;5093687;28;20196;-74
2023/01/02 11:10:35;;;;;;;0.68;0.68;;;-1.90;99.90;;;;;;5093393;28;20739;-74
2023/01/02 11:13:02;;;;;;;1.80;1.70;;;-1.80;99.90;;;;;;5093936;28;20216;-74
2023/01/02 11:15:33;;;;;;;0.80;0.80;;;-1.80;99.90;;;;;;5093592;28;20616;-74
2023/01/02 11:18:01;;;;;;;0.70;0.70;;;-1.70;99.90;;;;;;5075139;28;20200;-72
2023/01/02 11:20:36;;;;;;;0.60;0.60;;;-1.70;99.90;;;;;;5093774;28;20235;-73
2023/01/02 11:23:03;;;;;;;0.77;0.77;;;-1.70;99.90;;;;;;5075501;28;20188;-74
2023/01/02 11:25:40;;;;;;;0.70;0.70;;;-1.70;99.90;;;;;;5093694;28;20220;-72
2023/01/02 11:28:13;;;;;;;0.95;0.93;;;-1.70;99.90;;;;;;5093395;28;20198;-73
2023/01/02 11:30:52;;;;;;;0.80;0.80;;;-1.70;99.90;;;;;;5092873;28;21578;-73
2023/01/02 11:33:23;;;;;;;0.60;0.60;;;-1.70;99.90;;;;;;5093171;28;20196;-73
2023/01/02 11:36:16;;;;;;;0.70;0.70;;;-1.70;99.90;;;;;;5075181;28;20203;-73
2023/01/02 11:38:46;;;;;;;0.63;0.63;;;-1.70;99.90;;;;;;5083702;28;20295;-74
2023/01/02 11:41:21;;;;;;;0.75;0.75;;;-1.70;99.90;;;;;;5093634;28;20226;-73
2023/01/02 11:43:54;;;;;;;0.77;0.77;;;-1.80;99.90;;;;;;5092278;28;20240;-73
2023/01/02 11:46:31;;;;;;;0.70;0.70;;;-1.80;99.90;;;;;;5074497;28;20192;-72
2023/01/02 11:49:10;;;;;;;0.80;0.80;;;-1.80;99.90;;;;;;5093240;28;20184;-71
2023/01/02 11:51:38;;;;;;;0.90;0.90;;;-1.90;99.90;;;;;;5092612;28;20192;-72
2023/01/02 11:54:13;;;;;;;0.60;0.60;;;-2.00;99.90;;;;;;5092753;28;20199;-72
2023/01/02 11:56:44;;;;;;;0.88;0.88;;;-2.10;99.90;;;;;;5092333;28;20191;-73
2023/01/02 11:59:21;;;;;;;0.75;0.75;;;-2.10;99.90;;;;;;5074479;28;20196;-73
2023/01/02 12:02:05;;;;;;;0.80;0.80;;;-2.20;99.90;;;;;;5092765;28;20204;-74
2023/01/02 12:04:31;;;;;;;0.77;0.77;;;-2.20;99.90;;;;;;5071012;28;20647;-73
2023/01/02 12:07:16;;;;;;;0.70;0.70;;;-2.20;99.90;;;;;;5072495;28;20339;-72
2023/01/02 12:10:17;;;;;;;0.77;0.77;;;-2.20;99.90;;;;;;5072185;28;20240;-73
2023/01/02 12:13:08;;;;;;;0.65;0.65;;;-2.20;99.90;;;;;;5045208;28;20232;-73
2023/01/02 12:16:04;;;;;;;0.80;0.80;;;-2.20;99.90;;;;;;5061323;28;20200;-73
2023/01/02 12:18:51;;;;;;;0.75;0.75;;;-2.20;99.90;;;;;;5050646;28;20219;-73
2023/01/02 12:21:30;;;;;;;0.60;0.60;;;-2.10;99.90;;;;;;5092187;28;20208;-73
2023/01/02 12:24:04;;;;;;;0.80;0.80;;;-2.20;99.90;;;;;;5092221;28;20695;-73
2023/01/02 12:26:45;;;;;;;0.70;0.70;;;-2.20;99.90;;;;;;5092087;28;20191;-74
2023/01/02 12:29:36;;;;;;;1.80;1.67;;;-2.20;99.90;;;;;;5092260;28;20215;-72
2023/01/02 12:32:20;;;;;;;0.80;0.80;;;-2.10;99.90;;;;;;5092497;28;20188;-74
2023/01/02 12:35:14;;;;;;;0.90;0.90;;;-2.10;99.90;;;;;;5073914;28;20294;-73
2023/01/02 12:37:52;;;;;;;0.70;0.70;;;-2.20;99.90;;;;;;5070040;28;20204;-72
2023/01/02 12:40:24;;;;;;;0.70;0.70;;;-2.20;99.90;;;;;;5071642;28;20250;-73
2023/01/02 12:43:31;;;;;;;3.22;2.60;;;-2.20;99.90;;;;;;5070441;28;20198;-73
2023/01/02 12:46:06;;;;;;;0.80;0.80;;;-2.20;99.90;;;;;;5032994;28;20201;-73
2023/01/02 12:49:08;;;;;;;0.70;0.70;;;-2.20;99.90;;;;;;5071702;28;20192;-73
2023/01/02 12:51:37;;;;;;;0.70;0.70;;;-2.20;99.90;;;;;;5070871;28;20601;-74
2023/01/02 12:54:35;;;;;;;0.68;0.68;;;-2.20;99.90;;;;;;5080517;28;20271;-73
2023/01/02 12:57:07;;;;;;;0.80;0.80;;;-2.20;99.90;;;;;;5084781;28;20584;-73
2023/01/02 13:00:14;;;;;;;0.80;0.80;;;-2.20;99.90;;;;;;5073888;28;20321;-74
2023/01/02 13:02:54;;;;;;;0.70;0.70;;;-2.20;99.90;;;;;;5071459;28;20292;-74
2023/01/02 13:05:25;;;;;;;0.70;0.70;;;-2.20;99.90;;;;;;5071565;28;20197;-73
2023/01/02 13:08:01;;;;;;;0.80;0.80;;;-2.20;99.90;;;;;;5071707;28;20275;-73
2023/01/02 13:10:28;;;;;;;0.70;0.70;;;-2.30;99.90;;;;;;5071588;28;20645;-73
2023/01/02 13:12:57;;;;;;;0.80;0.80;;;-2.30;99.90;;;;;;5071588;28;20590;-73
2023/01/02 13:15:47;;;;;;;0.80;0.80;;;-2.30;99.90;;;;;;5071329;28;20215;-73
2023/01/02 13:18:26;;;;;;;0.60;0.60;;;-2.20;99.90;;;;;;5071600;28;20201;-73
2023/01/02 13:21:18;;;;;;;0.77;0.77;;;-2.30;99.90;;;;;;5091992;28;20323;-72
2023/01/02 13:23:46;;;;;;;0.80;0.80;;;-2.30;99.90;;;;;;5054701;28;20304;-73